createdAt,value
2022-09-05T00:03:31.673Z,74.16
2022-09-05T00:08:33.201Z,74.14
2022-09-05T00:13:34.509Z,73.93
2022-09-05T00:24:18.613Z,73.61
2022-09-05T00:24:32.758Z,74.22
2022-09-05T00:29:30.300Z,74.61
2022-09-05T00:34:47.236Z,74.01
2022-09-05T00:40:06.739Z,73.67
2022-09-05T00:45:14.498Z,73.74
2022-09-05T00:50:20.658Z,73.88
2022-09-05T00:55:21.986Z,74.56
2022-09-05T01:00:23.869Z,73.50
2022-09-05T01:05:25.290Z,73.75
2022-09-05T01:10:26.649Z,74.33
2022-09-05T01:15:30.085Z,74.79
2022-09-05T01:20:38.075Z,75.59
2022-09-05T01:25:39.815Z,75.10
2022-09-05T01:30:45.499Z,74.29
2022-09-05T01:36:01.922Z,75.23
2022-09-05T01:41:18.383Z,75.49
2022-09-05T01:46:20.796Z,75.33
2022-09-05T01:51:28.167Z,75.50
2022-09-05T01:56:31.152Z,74.88
2022-09-05T02:01:33.379Z,74.95
2022-09-05T02:06:34.926Z,74.40
2022-09-05T02:11:36.322Z,74.94
2022-09-05T02:16:38.241Z,75.18
2022-09-05T02:21:56.528Z,74.41
2022-09-05T02:26:58.615Z,75.24
2022-09-05T02:31:59.899Z,75.35
2022-09-05T02:37:01.215Z,74.42
2022-09-05T02:45:14.653Z,74.57
2022-09-05T02:47:23.818Z,74.63
2022-09-05T02:57:26.263Z,74.69
2022-09-05T02:58:06.388Z,74.55
2022-09-05T03:03:09.558Z,74.23
2022-09-05T03:08:10.877Z,75.20
2022-09-05T03:13:12.215Z,74.93
2022-09-05T03:18:21.140Z,75.03
2022-09-05T03:23:33.306Z,75.50
2022-09-05T03:28:34.713Z,75.17
2022-09-05T03:33:37.003Z,74.16
2022-09-05T03:38:38.404Z,74.76
2022-09-05T03:43:39.773Z,75.13
2022-09-05T03:48:41.141Z,75.33
2022-09-05T03:57:17.059Z,75.52
2022-09-05T03:59:04.679Z,75.66
2022-09-05T04:08:06.240Z,75.84
2022-09-05T04:09:49.469Z,75.75
2022-09-05T04:14:48.833Z,75.55
2022-09-05T04:19:50.296Z,75.13
2022-09-05T04:24:51.620Z,75.69
2022-09-05T04:29:52.921Z,75.77
2022-09-05T04:34:54.236Z,75.71
2022-09-05T04:39:55.595Z,76.29
2022-09-05T04:44:57.008Z,75.59
2022-09-05T04:49:58.391Z,75.63
2022-09-05T04:55:00.563Z,75.66
2022-09-05T05:05:58.591Z,75.32
2022-09-05T05:06:14.662Z,75.23
2022-09-05T05:15:39.564Z,75.50
2022-09-05T05:18:07.789Z,75.19
2022-09-05T05:21:27.032Z,75.79
2022-09-05T05:26:28.424Z,76.09
2022-09-05T05:31:29.745Z,76.27
2022-09-05T05:36:31.073Z,76.62
2022-09-05T05:41:32.378Z,76.89
2022-09-05T05:46:33.711Z,76.72
2022-09-05T05:52:00.939Z,77.34
2022-09-05T05:56:56.591Z,77.20
2022-09-05T06:01:58.121Z,77.51
2022-09-05T06:07:01.319Z,77.83
2022-09-05T06:15:00.159Z,78.52
2022-09-05T06:17:28.179Z,79.23
2022-09-05T06:22:30.815Z,79.31
2022-09-05T06:27:32.214Z,77.82
2022-09-05T06:32:33.520Z,77.89
2022-09-05T06:37:34.819Z,78.34
2022-09-05T06:42:43.657Z,77.32
2022-09-05T06:47:45.454Z,77.78
2022-09-05T06:52:58.621Z,77.19
2022-09-05T06:58:09.722Z,75.70
2022-09-05T07:03:13.587Z,77.21
2022-09-05T07:08:31.802Z,78.69
2022-09-05T07:13:44.563Z,78.75
2022-09-05T07:18:46.311Z,78.13
2022-09-05T07:24:06.212Z,75.87
2022-09-05T07:29:09.698Z,78.21
2022-09-05T07:34:21.081Z,78.93
2022-09-05T07:39:29.141Z,78.55
2022-09-05T07:44:30.808Z,75.21
2022-09-05T07:49:32.091Z,71.87
2022-09-05T07:57:06.508Z,72.49
2022-09-05T07:59:54.951Z,67.18
2022-09-05T08:04:56.311Z,67.88
2022-09-05T08:10:08.648Z,66.46
2022-09-05T08:15:16.447Z,65.60
2022-09-05T08:20:18.162Z,67.15
2022-09-05T08:25:19.617Z,65.15
2022-09-05T08:30:26.871Z,67.17
2022-09-05T08:35:28.996Z,65.00
2022-09-05T08:40:30.336Z,64.28
2022-09-05T08:46:41.095Z,61.99
2022-09-05T08:50:54.085Z,62.19
2022-09-05T08:55:55.395Z,61.26
2022-09-05T09:01:00.187Z,60.76
2022-09-05T09:06:14.407Z,59.29
2022-09-05T09:11:16.779Z,60.49
2022-09-05T09:16:18.182Z,62.39
2022-09-05T09:21:19.528Z,61.70
2022-09-05T09:26:20.848Z,61.61
2022-09-05T09:31:25.898Z,59.15
2022-09-05T09:36:27.222Z,59.78
2022-09-05T09:41:28.641Z,61.28
2022-09-05T09:46:30.573Z,59.89
2022-09-05T09:51:31.960Z,58.38
2022-09-05T09:56:33.373Z,56.29
2022-09-05T10:01:37.001Z,58.67
2022-09-05T10:10:49.217Z,55.31
2022-09-05T10:12:01.483Z,56.44
2022-09-05T10:17:03.755Z,54.33
2022-09-05T10:27:29.743Z,52.44
2022-09-05T10:35:09.967Z,51.61
2022-09-05T10:37:52.398Z,52.64
2022-09-05T10:43:01.163Z,52.39
2022-09-05T10:48:13.310Z,50.40
2022-09-05T10:53:15.238Z,50.02
2022-09-05T10:58:16.533Z,49.23
2022-09-05T11:03:25.194Z,48.15
2022-09-05T11:08:28.363Z,48.10
2022-09-05T11:13:29.642Z,46.05
2022-09-05T11:18:55.642Z,46.81
2022-09-05T11:23:57.082Z,47.03
2022-09-05T11:29:00.836Z,45.29
2022-09-05T11:37:04.250Z,45.35
2022-09-05T11:40:02.603Z,43.77
2022-09-05T11:44:56.870Z,41.33
2022-09-05T11:49:58.259Z,44.30
2022-09-05T11:54:59.537Z,40.77
2022-09-05T12:00:30.729Z,40.13
2022-09-05T12:05:49.031Z,39.44
2022-09-05T12:10:47.895Z,40.38
2022-09-05T12:16:07.236Z,37.82
2022-09-05T12:21:13.581Z,39.18
2022-09-05T12:27:38.661Z,39.74
2022-09-05T12:33:32.662Z,37.44
2022-09-05T12:40:27.630Z,36.55
2022-09-05T12:42:56.362Z,36.41
2022-09-05T12:48:02.784Z,35.43
2022-09-05T12:53:04.818Z,38.61
2022-09-05T13:02:55.073Z,36.42
2022-09-05T13:03:40.643Z,34.87
2022-09-05T13:08:52.838Z,36.83
2022-09-05T13:14:57.190Z,33.35
2022-09-05T13:19:22.488Z,34.67
2022-09-05T13:24:27.519Z,31.90
2022-09-05T13:29:28.859Z,34.07
2022-09-05T13:37:59.607Z,33.65
2022-09-05T13:39:59.524Z,34.52
2022-09-05T13:45:01.143Z,32.20
2022-09-05T13:50:05.396Z,33.35
2022-09-05T13:55:09.938Z,32.70
2022-09-05T14:00:27.732Z,33.49
2022-09-05T14:05:30.036Z,32.99
2022-09-05T14:10:32.528Z,34.22
2022-09-05T14:15:34.525Z,34.15
2022-09-05T14:20:54.582Z,33.06
2022-09-05T14:25:57.559Z,33.15
2022-09-05T14:37:36.765Z,30.93
2022-09-05T14:37:51.309Z,32.89
2022-09-05T14:41:44.286Z,34.47
2022-09-05T14:47:03.448Z,33.43
2022-09-05T14:52:05.470Z,32.99
2022-09-05T14:59:40.620Z,31.93
2022-09-05T15:02:54.501Z,32.66
2022-09-05T15:07:50.207Z,30.49
2022-09-05T15:13:00.230Z,32.50
2022-09-05T15:18:02.038Z,30.48
2022-09-05T15:23:11.238Z,33.56
2022-09-05T15:28:18.211Z,31.57
2022-09-05T15:33:25.589Z,30.55
2022-09-05T15:38:27.485Z,32.71
2022-09-05T15:48:46.269Z,31.65
2022-09-05T15:53:47.592Z,33.52
2022-09-05T15:58:53.321Z,32.57
2022-09-05T16:09:51.239Z,32.30
2022-09-05T16:10:57.578Z,33.10
2022-09-05T16:14:39.733Z,38.44
2022-09-05T16:23:28.089Z,38.69
2022-09-05T16:25:07.864Z,39.92
2022-09-05T16:30:12.015Z,40.05
2022-09-05T16:35:17.255Z,42.78
2022-09-05T16:40:19.313Z,42.49
2022-09-05T16:45:20.664Z,42.35
2022-09-05T16:50:24.023Z,42.30
2022-09-05T16:55:29.247Z,43.95
2022-09-05T17:00:31.007Z,44.31
2022-09-05T17:05:32.383Z,43.77
2022-09-05T17:10:33.738Z,44.49
2022-09-05T17:15:35.516Z,46.18
2022-09-05T17:20:37.660Z,45.14
2022-09-05T17:29:15.994Z,45.87
2022-09-05T17:36:21.646Z,49.11
2022-09-05T17:41:22.992Z,48.93
2022-09-05T17:46:25.047Z,49.42
2022-09-05T17:51:26.343Z,51.26
2022-09-05T17:56:27.723Z,51.33
2022-09-05T18:01:32.401Z,53.14
2022-09-05T18:06:35.676Z,55.80
2022-09-05T18:11:37.687Z,56.58
2022-09-05T18:17:35.865Z,56.58
2022-09-05T18:22:08.308Z,58.76
2022-09-05T18:27:29.722Z,60.08
2022-09-05T18:32:33.815Z,60.26
2022-09-05T18:37:35.160Z,59.84
2022-09-05T18:42:36.714Z,60.92
2022-09-05T18:47:38.544Z,59.18
2022-09-05T18:53:09.685Z,60.60
2022-09-05T18:58:14.052Z,62.56
2022-09-05T19:03:15.397Z,62.19
2022-09-05T19:08:28.886Z,61.79
2022-09-05T19:13:33.223Z,60.77
2022-09-05T19:18:34.986Z,61.78
2022-09-05T19:23:36.322Z,60.94
2022-09-05T19:36:49.028Z,62.43
2022-09-05T19:37:12.862Z,61.63
2022-09-05T19:44:28.233Z,62.11
2022-09-05T19:47:34.812Z,62.95
2022-09-05T19:50:06.119Z,62.92
2022-09-05T19:55:07.421Z,63.84
2022-09-05T20:00:08.756Z,63.08
2022-09-05T20:05:10.132Z,64.13
2022-09-05T20:10:12.346Z,64.30
2022-09-05T20:15:21.511Z,64.18
2022-09-05T20:20:22.828Z,65.26
2022-09-05T20:25:35.596Z,64.26
2022-09-05T20:30:38.052Z,64.24
2022-09-05T20:38:42.163Z,65.99
2022-09-05T20:43:23.648Z,67.25
2022-09-05T20:49:06.907Z,66.69
2022-09-05T20:54:23.200Z,67.06
2022-09-05T20:57:08.631Z,67.40
2022-09-05T21:02:10.040Z,68.23
2022-09-05T21:13:02.296Z,68.01
2022-09-05T21:18:03.675Z,67.94
2022-09-05T21:23:04.951Z,67.42
2022-09-05T21:28:06.319Z,66.85
2022-09-05T21:33:11.457Z,67.89
2022-09-05T21:38:32.271Z,67.87
2022-09-05T21:47:35.505Z,66.83
2022-09-05T21:48:56.170Z,67.28
2022-09-05T21:59:14.714Z,67.68
2022-09-05T21:59:37.174Z,68.20
2022-09-05T22:04:42.062Z,67.42
2022-09-05T22:09:43.410Z,68.62
2022-09-05T22:14:44.759Z,67.82
2022-09-05T22:19:46.748Z,68.10
2022-09-05T22:24:48.084Z,67.52
2022-09-05T22:29:50.881Z,68.32
2022-09-05T22:34:52.505Z,69.17
2022-09-05T22:39:53.827Z,69.68
2022-09-05T22:44:55.190Z,69.16
2022-09-05T22:49:56.576Z,69.39
2022-09-05T22:54:57.855Z,69.92
2022-09-05T22:59:59.167Z,69.73
2022-09-05T23:05:00.531Z,69.98
2022-09-05T23:10:03.942Z,70.12
2022-09-05T23:15:05.237Z,69.78
2022-09-05T23:20:06.534Z,70.65
2022-09-05T23:25:08.056Z,70.30
2022-09-05T23:30:09.577Z,71.46
2022-09-05T23:35:10.876Z,71.00
2022-09-05T23:40:13.087Z,71.39
2022-09-05T23:45:14.382Z,71.17
2022-09-05T23:50:15.680Z,71.26
2022-09-05T23:55:16.972Z,71.10
